createdAt,value
2022-07-29T00:02:27.420Z,33.26
2022-07-29T00:04:54.470Z,33.57
2022-07-29T00:07:21.456Z,33.71
2022-07-29T00:09:51.932Z,33.64
2022-07-29T00:12:25.794Z,33.40
2022-07-29T00:14:55.366Z,33.59
2022-07-29T00:17:23.095Z,33.52
2022-07-29T00:19:49.896Z,33.59
2022-07-29T00:22:16.690Z,33.59
2022-07-29T00:24:43.487Z,33.97
2022-07-29T00:27:10.285Z,33.71
2022-07-29T00:29:37.066Z,33.73
2022-07-29T00:32:04.385Z,33.86
2022-07-29T00:34:50.394Z,33.83
2022-07-29T00:37:17.439Z,33.99
2022-07-29T00:39:44.721Z,33.98
2022-07-29T00:42:11.588Z,34.13
2022-07-29T00:44:40.581Z,34.08
2022-07-29T00:47:08.691Z,34.25
2022-07-29T00:49:36.091Z,34.14
2022-07-29T00:52:08.133Z,34.13
2022-07-29T00:54:35.539Z,34.36
2022-07-29T00:57:08.908Z,34.34
2022-07-29T00:59:36.017Z,34.55
2022-07-29T01:02:04.471Z,34.63
2022-07-29T01:04:32.886Z,34.50
2022-07-29T01:07:02.045Z,34.71
2022-07-29T01:09:43.169Z,34.57
2022-07-29T01:12:20.044Z,34.47
2022-07-29T01:14:48.745Z,34.64
2022-07-29T01:17:25.335Z,34.67
2022-07-29T01:19:59.528Z,34.63
2022-07-29T01:22:43.005Z,34.58
2022-07-29T01:25:33.787Z,35.00
2022-07-29T01:28:42.085Z,35.17
2022-07-29T01:31:20.267Z,35.25
2022-07-29T01:34:00.125Z,35.11
2022-07-29T01:36:37.210Z,34.98
2022-07-29T01:39:11.645Z,34.92
2022-07-29T01:41:56.352Z,35.57
2022-07-29T01:44:36.846Z,35.22
2022-07-29T01:47:15.568Z,35.13
2022-07-29T01:49:51.014Z,35.78
2022-07-29T01:52:43.880Z,35.50
2022-07-29T01:55:17.937Z,35.40
2022-07-29T01:57:50.947Z,35.43
2022-07-29T02:00:19.086Z,35.45
2022-07-29T02:02:47.935Z,35.56
2022-07-29T02:05:18.857Z,35.71
2022-07-29T02:07:48.441Z,35.89
2022-07-29T02:10:18.577Z,35.56
2022-07-29T02:12:50.621Z,35.96
2022-07-29T02:15:19.606Z,35.78
2022-07-29T02:18:02.222Z,35.96
2022-07-29T02:20:30.975Z,36.06
2022-07-29T02:23:01.622Z,36.31
2022-07-29T02:25:37.647Z,36.36
2022-07-29T02:28:07.622Z,36.43
2022-07-29T02:30:38.062Z,36.31
2022-07-29T02:33:06.368Z,36.48
2022-07-29T02:35:34.850Z,36.35
2022-07-29T02:38:21.794Z,36.47
2022-07-29T02:40:50.357Z,36.31
2022-07-29T02:43:20.196Z,36.58
2022-07-29T02:45:52.657Z,36.56
2022-07-29T02:48:22.966Z,36.43
2022-07-29T02:50:57.966Z,36.81
2022-07-29T02:53:27.258Z,36.61
2022-07-29T02:56:01.213Z,37.04
2022-07-29T02:58:39.418Z,36.87
2022-07-29T03:01:21.618Z,36.76
2022-07-29T03:03:52.802Z,36.77
2022-07-29T03:06:28.109Z,37.17
2022-07-29T03:09:00.073Z,37.19
2022-07-29T03:11:46.219Z,37.34
2022-07-29T03:14:15.265Z,37.50
2022-07-29T03:16:43.027Z,37.20
2022-07-29T03:19:09.955Z,37.50
2022-07-29T03:21:36.786Z,37.57
2022-07-29T03:24:09.773Z,37.61
2022-07-29T03:26:37.310Z,37.62
2022-07-29T03:29:04.097Z,37.83
2022-07-29T03:31:30.948Z,37.70
2022-07-29T03:33:58.431Z,37.66
2022-07-29T03:36:25.730Z,37.83
2022-07-29T03:38:53.182Z,37.81
2022-07-29T03:41:22.326Z,37.94
2022-07-29T03:43:50.970Z,38.24
2022-07-29T03:46:18.849Z,38.13
2022-07-29T03:48:52.028Z,38.20
2022-07-29T03:51:18.934Z,38.13
2022-07-29T03:54:00.547Z,38.24
2022-07-29T03:56:28.960Z,38.38
2022-07-29T03:58:56.642Z,38.46
2022-07-29T04:01:24.875Z,38.30
2022-07-29T04:03:52.420Z,38.58
2022-07-29T04:06:19.286Z,38.61
2022-07-29T04:08:46.145Z,38.47
2022-07-29T04:11:13.605Z,38.65
2022-07-29T04:13:40.423Z,38.79
2022-07-29T04:16:07.348Z,38.93
2022-07-29T04:18:34.223Z,38.93
2022-07-29T04:21:01.766Z,38.88
2022-07-29T04:23:33.414Z,38.82
2022-07-29T04:26:01.979Z,39.19
2022-07-29T04:28:29.019Z,38.89
2022-07-29T04:30:56.329Z,39.22
2022-07-29T04:33:23.164Z,39.02
2022-07-29T04:35:52.560Z,39.23
2022-07-29T04:38:21.875Z,39.35
2022-07-29T04:40:49.767Z,39.26
2022-07-29T04:43:16.939Z,39.32
2022-07-29T04:45:49.659Z,39.21
2022-07-29T04:48:16.440Z,39.36
2022-07-29T04:50:43.283Z,39.71
2022-07-29T04:53:10.072Z,39.65
2022-07-29T04:55:38.856Z,39.81
2022-07-29T04:58:06.048Z,39.87
2022-07-29T05:00:33.453Z,39.59
2022-07-29T05:03:00.849Z,39.91
2022-07-29T05:05:27.810Z,39.97
2022-07-29T05:07:54.585Z,40.16
2022-07-29T05:10:21.378Z,40.21
2022-07-29T05:12:48.265Z,40.06
2022-07-29T05:15:15.204Z,40.34
2022-07-29T05:17:42.032Z,40.28
2022-07-29T05:20:09.505Z,40.41
2022-07-29T05:22:36.308Z,40.33
2022-07-29T05:25:08.876Z,40.65
2022-07-29T05:27:37.718Z,40.76
2022-07-29T05:30:05.247Z,40.79
2022-07-29T05:32:32.723Z,40.63
2022-07-29T05:34:59.550Z,40.61
2022-07-29T05:37:26.373Z,40.81
2022-07-29T05:39:56.617Z,40.90
2022-07-29T05:42:24.591Z,40.97
2022-07-29T05:44:51.762Z,40.89
2022-07-29T05:47:18.638Z,40.93
2022-07-29T05:49:45.665Z,41.23
2022-07-29T05:52:12.638Z,41.00
2022-07-29T05:54:39.557Z,40.86
2022-07-29T05:57:06.523Z,41.16
2022-07-29T05:59:37.784Z,40.87
2022-07-29T06:02:06.008Z,40.93
2022-07-29T06:04:34.442Z,41.05
2022-07-29T06:07:01.355Z,41.10
2022-07-29T06:09:29.265Z,41.09
2022-07-29T06:11:56.231Z,40.87
2022-07-29T06:14:23.019Z,40.79
2022-07-29T06:16:49.852Z,40.86
2022-07-29T06:19:16.790Z,40.39
2022-07-29T06:21:44.716Z,40.32
2022-07-29T06:26:43.746Z,39.58
2022-07-29T06:29:14.072Z,39.36
2022-07-29T06:31:40.875Z,39.55
2022-07-29T06:34:08.154Z,39.34
2022-07-29T06:36:39.800Z,39.46
2022-07-29T06:39:09.041Z,39.40
2022-07-29T06:41:36.466Z,39.49
2022-07-29T06:44:03.466Z,39.49
2022-07-29T06:46:30.341Z,39.49
2022-07-29T06:48:57.205Z,39.70
2022-07-29T06:51:24.289Z,39.53
2022-07-29T06:53:59.869Z,39.68
2022-07-29T06:56:32.259Z,39.56
2022-07-29T06:59:06.116Z,39.38
2022-07-29T07:01:32.991Z,39.40
2022-07-29T07:03:59.876Z,39.32
2022-07-29T07:06:26.822Z,39.34
2022-07-29T07:08:53.659Z,38.96
2022-07-29T07:11:20.457Z,38.86
2022-07-29T07:13:47.303Z,38.27
2022-07-29T07:16:14.143Z,37.91
2022-07-29T07:18:41.414Z,37.50
2022-07-29T07:21:08.241Z,37.40
2022-07-29T07:23:35.037Z,37.62
2022-07-29T07:26:01.838Z,37.55
2022-07-29T07:28:28.626Z,37.74
2022-07-29T07:30:55.438Z,37.35
2022-07-29T07:33:22.230Z,37.38
2022-07-29T07:35:49.033Z,37.66
2022-07-29T07:38:15.816Z,37.59
2022-07-29T07:40:43.128Z,37.58
2022-07-29T07:43:09.915Z,37.91
2022-07-29T07:45:38.252Z,37.73
2022-07-29T07:48:05.810Z,37.79
2022-07-29T07:50:32.830Z,38.10
2022-07-29T07:52:59.779Z,38.05
2022-07-29T07:55:27.256Z,37.93
2022-07-29T07:57:57.504Z,38.05
2022-07-29T08:00:24.373Z,38.02
2022-07-29T08:02:51.710Z,38.18
2022-07-29T08:05:19.255Z,38.04
2022-07-29T08:07:49.199Z,38.03
2022-07-29T08:10:37.103Z,38.14
2022-07-29T08:13:08.814Z,38.37
2022-07-29T08:15:36.233Z,38.39
2022-07-29T08:18:08.194Z,38.16
2022-07-29T08:20:37.024Z,38.31
2022-07-29T08:23:05.561Z,38.26
2022-07-29T08:25:33.224Z,38.08
2022-07-29T08:28:04.641Z,38.25
2022-07-29T08:30:31.623Z,38.10
2022-07-29T08:32:58.506Z,38.13
2022-07-29T08:35:26.081Z,37.97
2022-07-29T08:37:53.793Z,37.74
2022-07-29T08:40:31.965Z,38.06
2022-07-29T08:43:04.686Z,38.03
2022-07-29T08:45:52.062Z,37.97
2022-07-29T08:48:22.317Z,38.12
2022-07-29T08:50:53.861Z,38.08
2022-07-29T08:53:22.071Z,37.88
2022-07-29T08:55:50.636Z,37.80
2022-07-29T08:58:18.481Z,37.90
2022-07-29T09:00:55.510Z,37.98
2022-07-29T09:03:26.253Z,37.97
2022-07-29T09:05:53.446Z,37.75
2022-07-29T09:08:20.986Z,37.81
2022-07-29T09:10:48.155Z,37.82
2022-07-29T09:13:14.938Z,37.76
2022-07-29T09:15:41.741Z,37.88
2022-07-29T09:18:08.546Z,37.59
2022-07-29T09:21:13.688Z,37.91
2022-07-29T09:23:42.558Z,37.97
2022-07-29T09:26:09.361Z,37.60
2022-07-29T09:28:43.000Z,37.71
2022-07-29T09:31:09.839Z,37.73
2022-07-29T09:33:37.374Z,37.68
2022-07-29T09:36:09.929Z,37.57
2022-07-29T09:38:38.185Z,37.52
2022-07-29T09:41:06.891Z,37.62
2022-07-29T09:43:34.627Z,37.81
2022-07-29T09:46:12.852Z,37.64
2022-07-29T09:48:39.968Z,37.52
2022-07-29T09:51:24.131Z,37.21
2022-07-29T09:53:53.681Z,37.47
2022-07-29T09:56:20.524Z,37.17
2022-07-29T09:58:47.324Z,37.24
2022-07-29T10:01:14.337Z,37.06
2022-07-29T10:03:54.023Z,36.89
2022-07-29T10:06:20.825Z,36.96
2022-07-29T10:08:48.009Z,36.63
2022-07-29T10:11:19.812Z,36.84
2022-07-29T10:13:49.083Z,36.64
2022-07-29T10:16:17.505Z,36.94
2022-07-29T10:18:45.332Z,36.81
2022-07-29T10:21:35.188Z,36.39
2022-07-29T10:24:01.324Z,36.55
2022-07-29T10:26:30.497Z,36.43
2022-07-29T10:28:57.290Z,36.47
2022-07-29T10:31:38.123Z,36.48
2022-07-29T10:34:46.136Z,36.15
2022-07-29T10:38:16.160Z,36.40
2022-07-29T10:41:24.249Z,36.32
2022-07-29T10:43:55.662Z,36.20
2022-07-29T10:46:23.000Z,36.11
2022-07-29T10:49:19.282Z,35.99
2022-07-29T10:52:01.409Z,36.20
2022-07-29T10:54:38.237Z,35.97
2022-07-29T10:57:53.357Z,35.77
2022-07-29T11:00:28.998Z,35.83
2022-07-29T11:02:57.538Z,35.75
2022-07-29T11:05:32.040Z,35.22
2022-07-29T11:08:26.243Z,35.27
2022-07-29T11:11:22.124Z,35.35
2022-07-29T11:13:53.122Z,35.01
2022-07-29T11:16:25.027Z,34.74
2022-07-29T11:19:14.684Z,35.17
2022-07-29T11:21:54.260Z,35.06
2022-07-29T11:24:30.134Z,34.81
2022-07-29T11:27:40.238Z,34.68
2022-07-29T11:30:08.848Z,34.30
2022-07-29T11:32:48.531Z,34.46
2022-07-29T11:35:36.972Z,34.56
2022-07-29T11:38:23.167Z,34.59
2022-07-29T11:41:28.626Z,34.23
2022-07-29T11:43:59.624Z,35.55
2022-07-29T11:46:49.814Z,34.43
2022-07-29T11:49:32.127Z,34.41
2022-07-29T11:52:02.326Z,34.19
2022-07-29T11:54:38.733Z,33.99
2022-07-29T11:57:22.281Z,33.68
2022-07-29T11:59:49.655Z,33.61
2022-07-29T12:02:36.698Z,33.34
2022-07-29T12:05:10.627Z,33.10
2022-07-29T12:07:41.285Z,33.31
2022-07-29T12:10:19.606Z,33.26
2022-07-29T12:12:52.549Z,34.62
2022-07-29T12:15:21.540Z,33.71
2022-07-29T12:17:49.596Z,33.31
2022-07-29T12:20:26.037Z,33.15
2022-07-29T12:22:55.389Z,33.20
2022-07-29T12:25:33.084Z,33.09
2022-07-29T12:28:10.276Z,32.91
2022-07-29T12:30:49.301Z,32.91
2022-07-29T12:33:30.742Z,33.03
2022-07-29T12:36:12.836Z,32.24
2022-07-29T12:38:45.473Z,32.03
2022-07-29T12:41:12.341Z,31.96
2022-07-29T12:43:54.540Z,31.47
2022-07-29T12:46:21.417Z,31.23
2022-07-29T12:48:56.128Z,30.94
2022-07-29T12:51:41.001Z,31.38
2022-07-29T12:54:17.254Z,31.22
2022-07-29T12:56:45.949Z,30.68
2022-07-29T12:59:22.515Z,30.91
2022-07-29T13:01:52.392Z,30.75
2022-07-29T13:04:56.394Z,31.17
2022-07-29T13:07:54.535Z,30.86
2022-07-29T13:10:24.126Z,30.65
2022-07-29T13:13:12.137Z,30.68
2022-07-29T13:15:43.268Z,30.67
2022-07-29T13:18:33.615Z,30.51
2022-07-29T13:21:20.675Z,30.31
2022-07-29T13:23:47.496Z,30.52
2022-07-29T13:26:14.288Z,29.95
2022-07-29T13:28:41.082Z,30.11
2022-07-29T13:31:11.358Z,29.64
2022-07-29T13:33:38.231Z,29.60
2022-07-29T13:36:05.041Z,29.81
2022-07-29T13:38:31.844Z,29.20
2022-07-29T13:40:59.363Z,29.08
2022-07-29T13:43:26.258Z,29.00
2022-07-29T13:45:53.144Z,29.06
2022-07-29T13:48:19.997Z,29.14
2022-07-29T13:50:47.554Z,28.89
2022-07-29T13:53:17.810Z,29.09
2022-07-29T13:55:45.630Z,29.07
2022-07-29T13:58:12.510Z,28.97
2022-07-29T14:00:39.364Z,28.92
2022-07-29T14:03:07.246Z,28.93
2022-07-29T14:05:34.039Z,28.62
2022-07-29T14:08:00.856Z,28.46
2022-07-29T14:10:27.695Z,28.75
2022-07-29T14:12:54.488Z,28.29
2022-07-29T14:15:21.365Z,28.32
2022-07-29T14:17:48.124Z,28.03
2022-07-29T14:20:16.447Z,27.86
2022-07-29T14:22:45.115Z,28.11
2022-07-29T14:25:15.293Z,27.91
2022-07-29T14:27:44.236Z,27.54
2022-07-29T14:30:12.000Z,27.38
2022-07-29T14:32:38.807Z,27.48
2022-07-29T14:35:06.894Z,27.35
2022-07-29T14:37:39.952Z,27.20
2022-07-29T14:40:08.679Z,27.05
2022-07-29T14:42:35.677Z,26.70
2022-07-29T14:45:02.508Z,26.47
2022-07-29T14:47:29.289Z,26.48
2022-07-29T14:49:56.083Z,26.07
2022-07-29T14:52:22.852Z,26.23
2022-07-29T14:54:49.973Z,26.29
2022-07-29T14:57:17.308Z,26.35
2022-07-29T14:59:44.104Z,26.40
2022-07-29T15:02:10.940Z,25.89
2022-07-29T15:04:37.746Z,26.11
2022-07-29T15:07:05.023Z,25.51
2022-07-29T15:09:31.849Z,25.72
2022-07-29T15:12:03.902Z,25.46
2022-07-29T15:14:30.698Z,25.02
2022-07-29T15:16:57.517Z,25.22
2022-07-29T15:19:24.508Z,25.26
2022-07-29T15:21:51.395Z,24.55
2022-07-29T15:24:18.274Z,25.13
2022-07-29T15:26:45.496Z,25.10
2022-07-29T15:29:12.429Z,24.87
2022-07-29T15:31:39.341Z,24.77
2022-07-29T15:34:06.692Z,24.61
2022-07-29T15:39:21.461Z,24.58
2022-07-29T15:41:48.597Z,24.26
2022-07-29T15:44:15.405Z,24.32
2022-07-29T15:47:01.258Z,24.05
2022-07-29T15:49:47.525Z,24.38
2022-07-29T15:52:18.991Z,24.56
2022-07-29T15:54:51.644Z,24.94
2022-07-29T15:57:18.424Z,24.70
2022-07-29T15:59:45.241Z,24.42
2022-07-29T16:02:12.203Z,24.74
2022-07-29T16:04:39.046Z,24.60
2022-07-29T16:07:05.928Z,24.72
2022-07-29T16:09:32.710Z,24.61
2022-07-29T16:11:59.559Z,24.50
2022-07-29T16:14:28.228Z,24.42
2022-07-29T16:16:56.000Z,24.22
2022-07-29T16:19:23.305Z,24.47
2022-07-29T16:21:50.093Z,24.45
2022-07-29T16:24:17.091Z,24.50
2022-07-29T16:26:43.882Z,24.77
2022-07-29T16:29:10.744Z,24.67
2022-07-29T16:31:37.587Z,24.46
2022-07-29T16:34:04.437Z,24.71
2022-07-29T16:36:31.518Z,24.91
2022-07-29T16:38:58.339Z,24.92
2022-07-29T16:41:25.140Z,24.82
2022-07-29T16:43:51.929Z,24.73
2022-07-29T16:46:19.495Z,24.66
2022-07-29T16:48:47.872Z,24.94
2022-07-29T16:51:15.525Z,25.17
2022-07-29T16:53:42.470Z,24.92
2022-07-29T16:56:13.085Z,25.16
2022-07-29T16:58:43.783Z,24.90
2022-07-29T17:01:11.561Z,25.18
2022-07-29T17:04:00.949Z,24.94
2022-07-29T17:06:29.438Z,24.96
2022-07-29T17:08:56.624Z,25.10
2022-07-29T17:11:53.723Z,24.91
2022-07-29T17:14:10.526Z,25.14
2022-07-29T17:16:37.434Z,25.23
2022-07-29T17:19:04.308Z,24.83
2022-07-29T17:21:31.198Z,25.26
2022-07-29T17:23:59.197Z,25.00
2022-07-29T17:26:28.072Z,25.23
2022-07-29T17:28:55.570Z,25.16
2022-07-29T17:31:23.199Z,25.13
2022-07-29T17:33:50.149Z,25.26
2022-07-29T17:36:26.734Z,25.20
2022-07-29T17:39:04.246Z,25.17
2022-07-29T17:41:31.065Z,25.16
2022-07-29T17:43:57.922Z,25.36
2022-07-29T17:46:27.301Z,25.33
2022-07-29T17:48:55.805Z,25.40
2022-07-29T17:51:26.621Z,25.49
2022-07-29T17:53:53.572Z,25.61
2022-07-29T17:56:20.418Z,25.76
2022-07-29T17:58:47.715Z,25.88
2022-07-29T18:01:15.729Z,25.85
2022-07-29T18:03:43.416Z,25.93
2022-07-29T18:06:12.851Z,26.12
2022-07-29T18:08:40.610Z,26.44
2022-07-29T18:11:07.447Z,26.15
2022-07-29T18:13:34.282Z,26.30
2022-07-29T18:16:01.219Z,26.16
2022-07-29T18:18:28.200Z,26.49
2022-07-29T18:20:55.069Z,26.15
2022-07-29T18:23:21.906Z,26.47
2022-07-29T18:25:48.709Z,26.58
2022-07-29T18:28:15.520Z,26.57
2022-07-29T18:30:42.442Z,26.91
2022-07-29T18:33:21.722Z,26.65
2022-07-29T18:35:51.788Z,26.95
2022-07-29T18:38:19.176Z,26.79
2022-07-29T18:40:46.251Z,26.85
2022-07-29T18:43:13.550Z,26.74
2022-07-29T18:45:40.696Z,26.84
2022-07-29T18:48:13.281Z,26.77
2022-07-29T18:50:41.585Z,26.58
2022-07-29T18:53:09.024Z,26.57
2022-07-29T18:55:35.822Z,26.75
2022-07-29T18:58:03.118Z,26.82
2022-07-29T19:00:30.479Z,26.87
2022-07-29T19:02:57.416Z,26.77
2022-07-29T19:05:25.757Z,26.96
2022-07-29T19:07:54.672Z,26.89
2022-07-29T19:10:22.168Z,26.71
2022-07-29T19:12:48.960Z,26.74
2022-07-29T19:15:20.395Z,26.55
2022-07-29T19:17:48.497Z,26.92
2022-07-29T19:20:16.391Z,27.01
2022-07-29T19:22:43.222Z,26.80
2022-07-29T19:25:10.149Z,26.89
2022-07-29T19:27:37.142Z,26.92
2022-07-29T19:30:06.895Z,27.26
2022-07-29T19:32:33.788Z,27.41
2022-07-29T19:35:19.155Z,27.29
2022-07-29T19:37:45.939Z,27.38
2022-07-29T19:40:13.095Z,27.50
2022-07-29T19:42:39.888Z,27.39
2022-07-29T19:45:07.288Z,27.60
2022-07-29T19:47:34.204Z,27.79
2022-07-29T19:50:01.176Z,27.47
2022-07-29T19:52:28.295Z,27.96
2022-07-29T19:54:55.157Z,27.53
2022-07-29T19:57:22.032Z,27.81
2022-07-29T19:59:50.980Z,27.75
2022-07-29T20:02:17.843Z,27.65
2022-07-29T20:04:44.763Z,28.05
2022-07-29T20:07:12.973Z,28.10
2022-07-29T20:09:40.857Z,27.99
2022-07-29T20:12:11.547Z,28.18
2022-07-29T20:14:38.812Z,28.02
2022-07-29T20:17:05.720Z,28.06
2022-07-29T20:19:33.171Z,28.37
2022-07-29T20:22:00.148Z,28.41
2022-07-29T20:24:27.205Z,28.62
2022-07-29T20:26:54.011Z,28.63
2022-07-29T20:29:20.987Z,28.43
2022-07-29T20:31:52.927Z,28.41
2022-07-29T20:34:23.114Z,28.51
2022-07-29T20:36:49.952Z,28.89
2022-07-29T20:39:16.762Z,29.11
2022-07-29T20:41:44.244Z,28.78
2022-07-29T20:44:11.053Z,28.75
2022-07-29T20:46:39.154Z,29.08
2022-07-29T20:49:06.079Z,29.52
2022-07-29T20:51:32.880Z,29.75
2022-07-29T20:54:10.827Z,30.13
2022-07-29T20:56:38.110Z,29.85
2022-07-29T20:59:04.954Z,30.52
2022-07-29T21:01:31.812Z,30.60
2022-07-29T21:03:58.662Z,30.39
2022-07-29T21:06:25.658Z,30.81
2022-07-29T21:08:52.467Z,30.55
2022-07-29T21:11:42.854Z,31.24
2022-07-29T21:14:06.289Z,31.11
2022-07-29T21:16:33.762Z,31.47
2022-07-29T21:19:02.105Z,31.86
2022-07-29T21:21:29.075Z,31.84
2022-07-29T21:23:55.903Z,32.03
2022-07-29T21:26:22.677Z,31.95
2022-07-29T21:28:50.530Z,32.58
2022-07-29T21:31:17.700Z,32.63
2022-07-29T21:33:46.722Z,32.97
2022-07-29T21:36:47.304Z,33.22
2022-07-29T21:39:06.762Z,33.46
2022-07-29T21:41:34.517Z,33.24
2022-07-29T21:44:01.602Z,33.50
2022-07-29T21:46:28.613Z,33.80
2022-07-29T21:48:55.663Z,33.76
2022-07-29T21:51:22.544Z,34.31
2022-07-29T21:53:50.443Z,34.34
2022-07-29T21:56:19.937Z,34.94
2022-07-29T21:58:49.345Z,34.89
2022-07-29T22:01:16.212Z,35.25
2022-07-29T22:03:43.045Z,35.26
2022-07-29T22:06:11.429Z,35.48
2022-07-29T22:08:45.578Z,35.64
2022-07-29T22:11:12.916Z,35.97
2022-07-29T22:13:39.742Z,36.27
2022-07-29T22:16:06.988Z,36.20
2022-07-29T22:18:33.786Z,36.65
2022-07-29T22:21:00.562Z,36.83
2022-07-29T22:23:27.362Z,36.89
2022-07-29T22:25:54.165Z,37.03
2022-07-29T22:28:21.141Z,37.27
2022-07-29T22:30:48.014Z,37.76
2022-07-29T22:33:16.877Z,37.83
2022-07-29T22:35:45.712Z,37.59
2022-07-29T22:38:19.054Z,37.83
2022-07-29T22:40:46.882Z,38.15
2022-07-29T22:43:15.710Z,38.51
2022-07-29T22:45:42.575Z,38.20
2022-07-29T22:48:10.459Z,38.32
2022-07-29T22:50:38.274Z,38.82
2022-07-29T22:53:05.077Z,38.74
2022-07-29T22:55:31.863Z,38.83
2022-07-29T22:57:58.645Z,39.27
2022-07-29T23:00:25.460Z,38.99
2022-07-29T23:02:52.265Z,39.51
2022-07-29T23:05:19.141Z,39.57
2022-07-29T23:07:45.963Z,39.60
2022-07-29T23:10:12.742Z,39.51
2022-07-29T23:12:39.522Z,39.82
2022-07-29T23:15:06.956Z,39.91
2022-07-29T23:17:36.084Z,40.15
2022-07-29T23:20:06.690Z,40.19
2022-07-29T23:22:33.966Z,40.31
2022-07-29T23:25:00.753Z,40.53
2022-07-29T23:27:27.583Z,40.37
2022-07-29T23:29:54.363Z,40.59
2022-07-29T23:32:21.175Z,40.71
2022-07-29T23:34:47.944Z,40.45
2022-07-29T23:37:14.745Z,40.69
2022-07-29T23:39:41.529Z,40.85
2022-07-29T23:42:08.341Z,41.48
2022-07-29T23:44:35.114Z,41.46
2022-07-29T23:47:02.522Z,41.32
2022-07-29T23:49:29.573Z,41.73
2022-07-29T23:51:56.364Z,41.75
2022-07-29T23:54:23.163Z,42.19
2022-07-29T23:56:49.953Z,42.02
2022-07-29T23:59:16.730Z,42.27
